Julian Carroll Airport
KJKL : now visible

Airfield :











YOU CAN JOIN US ON...

 
LOGIN :

Register | Disclaimer

   EN    FR    IT 

 









Legend :    VFR   Marginal VFR   IFR   Intensive IFR   Very Intensive IFR
Visi :
Ceiling :
>= 8 km
>= 3000ft
5 to 8 km
1000 to 3000 ft
1500m to 5 km
500 to 1000 ft
800 to 1500m
200 to 500 ft
< 800m
< 200 ft
Symbols :   Thunderstorms  Fog  Heavy snow  Heavy precipitations  Wind > 20 kt






- Airport Elevation : 1381 ft


KJKL - Julian Carroll

CURRENT METAR :
  • 281129Z AUTO 00000KT 6SM BR BKN005 OVC019 06/05 A2990 RMK AO2 CIG 003V009 T00610050 $

EXPIRED METARs :
  • 281053Z AUTO VRB03KT 6SM BR BKN007 BKN010 OVC021 06/05 A2989 RMK AO2 CIG 004V008 SLP120 T00610050 $
  • 280953Z AUTO 32004KT 9SM OVC006 06/04 A2987 RMK AO2 CIG 004V011 SLP113 T00610044 $
  • 280853Z AUTO VRB03KT 10SM OVC008 06/05 A2986 RMK AO2 RAE06 CIG 005V011 SLP109 P0000 60003 T00610050 51013 $

TAF KJKL
Valid from the 28 at 10:00 until the 29 at 06:00 UTC


280942Z 2810/2906 28006KT P6SM BKN008 OVC015
FM281200 28006KT P6SM OVC015
FM281730 VRB04KT P6SM OVC020
FM282000 VRB03KT P6SM BKN040
KZID FIR / North America



MET'MAP, your aeronautical weather chart ! - Copyright ORBIFLY December 2007 - Disclaimer

ORBIFLY MET'MAP TEAM :

Programming & Development : Alexandra Zaïnal
Original concept : Baudouin d'Aumeries
Technical & hardware support : Manuel Goepfert
Assistance : Marc-Olivier Méhu




SOURCES & CREDITS :

   NOAA       Earth
Advisory